sensor_id;sensor_type;location;lat;lon;timestamp;P1;P2;P0
73623;PMS5003;61921;53.226;-1.296;2022-10-15T00:02:12;32;32;
73623;PMS5003;61921;53.226;-1.296;2022-10-15T00:04:38;35;35;
73623;PMS5003;61921;53.226;-1.296;2022-10-15T00:07:03;29;28;
73623;PMS5003;61921;53.226;-1.296;2022-10-15T00:09:29;34;32;
73623;PMS5003;61921;53.226;-1.296;2022-10-15T00:11:54;29;27;
73623;PMS5003;61921;53.226;-1.296;2022-10-15T00:14:20;32;30;
73623;PMS5003;61921;53.226;-1.296;2022-10-15T00:16:45;35;32;
73623;PMS5003;61921;53.226;-1.296;2022-10-15T00:19:11;36;34;
73623;PMS5003;61921;53.226;-1.296;2022-10-15T00:21:36;30;28;
73623;PMS5003;61921;53.226;-1.296;2022-10-15T00:24:03;33;28;
73623;PMS5003;61921;53.226;-1.296;2022-10-15T00:26:27;34;31;
73623;PMS5003;61921;53.226;-1.296;2022-10-15T00:28:53;37;28;
73623;PMS5003;61921;53.226;-1.296;2022-10-15T00:31:18;29;27;
73623;PMS5003;61921;53.226;-1.296;2022-10-15T00:33:43;28;27;
73623;PMS5003;61921;53.226;-1.296;2022-10-15T00:36:09;29;27;
73623;PMS5003;61921;53.226;-1.296;2022-10-15T00:38:34;31;29;
73623;PMS5003;61921;53.226;-1.296;2022-10-15T00:40:59;25;24;
73623;PMS5003;61921;53.226;-1.296;2022-10-15T00:45:50;28;27;
73623;PMS5003;61921;53.226;-1.296;2022-10-15T00:48:15;28;27;
73623;PMS5003;61921;53.226;-1.296;2022-10-15T00:50:41;29;28;
73623;PMS5003;61921;53.226;-1.296;2022-10-15T00:53:07;30;26;
73623;PMS5003;61921;53.226;-1.296;2022-10-15T00:55:32;32;29;
73623;PMS5003;61921;53.226;-1.296;2022-10-15T00:57:58;35;31;
73623;PMS5003;61921;53.226;-1.296;2022-10-15T01:00:23;35;33;
73623;PMS5003;61921;53.226;-1.296;2022-10-15T01:02:48;34;34;
73623;PMS5003;61921;53.226;-1.296;2022-10-15T01:05:14;36;32;
73623;PMS5003;61921;53.226;-1.296;2022-10-15T01:07:38;36;36;
73623;PMS5003;61921;53.226;-1.296;2022-10-15T01:10:05;36;35;
73623;PMS5003;61921;53.226;-1.296;2022-10-15T01:12:35;31;29;
73623;PMS5003;61921;53.226;-1.296;2022-10-15T01:14:57;32;30;
73623;PMS5003;61921;53.226;-1.296;2022-10-15T01:17:21;31;29;
73623;PMS5003;61921;53.226;-1.296;2022-10-15T01:19:51;30;28;
73623;PMS5003;61921;53.226;-1.296;2022-10-15T01:22:13;37;34;
73623;PMS5003;61921;53.226;-1.296;2022-10-15T01:24:44;38;35;
73623;PMS5003;61921;53.226;-1.296;2022-10-15T01:29:32;34;31;
73623;PMS5003;61921;53.226;-1.296;2022-10-15T01:31:53;31;29;
73623;PMS5003;61921;53.226;-1.296;2022-10-15T01:34:19;36;32;
73623;PMS5003;61921;53.226;-1.296;2022-10-15T01:36:46;29;28;
73623;PMS5003;61921;53.226;-1.296;2022-10-15T01:39:09;28;27;
73623;PMS5003;61921;53.226;-1.296;2022-10-15T01:41:35;33;29;
73623;PMS5003;61921;53.226;-1.296;2022-10-15T01:44:01;36;32;
73623;PMS5003;61921;53.226;-1.296;2022-10-15T01:46:26;36;35;
73623;PMS5003;61921;53.226;-1.296;2022-10-15T01:48:51;31;30;
73623;PMS5003;61921;53.226;-1.296;2022-10-15T01:51:16;32;30;
73623;PMS5003;61921;53.226;-1.296;2022-10-15T01:53:42;31;29;
73623;PMS5003;61921;53.226;-1.296;2022-10-15T01:56:08;29;28;
73623;PMS5003;61921;53.226;-1.296;2022-10-15T01:58:32;31;30;
73623;PMS5003;61921;53.226;-1.296;2022-10-15T02:00:58;33;32;
73623;PMS5003;61921;53.226;-1.296;2022-10-15T02:03:23;32;26;
73623;PMS5003;61921;53.226;-1.296;2022-10-15T02:05:49;34;28;
73623;PMS5003;61921;53.226;-1.296;2022-10-15T02:08:16;26;26;
73623;PMS5003;61921;53.226;-1.296;2022-10-15T02:10:42;26;26;
73623;PMS5003;61921;53.226;-1.296;2022-10-15T02:13:07;23;23;
73623;PMS5003;61921;53.226;-1.296;2022-10-15T02:15:32;25;22;
73623;PMS5003;61921;53.226;-1.296;2022-10-15T02:17:56;25;25;
73623;PMS5003;61921;53.226;-1.296;2022-10-15T02:20:21;29;28;
73623;PMS5003;61921;53.226;-1.296;2022-10-15T02:22:47;27;24;
73623;PMS5003;61921;53.226;-1.296;2022-10-15T02:25:13;23;22;
73623;PMS5003;61921;53.226;-1.296;2022-10-15T02:27:37;21;20;
73623;PMS5003;61921;53.226;-1.296;2022-10-15T02:30:03;22;18;
73623;PMS5003;61921;53.226;-1.296;2022-10-15T02:32:28;18;17;
73623;PMS5003;61921;53.226;-1.296;2022-10-15T02:34:54;18;18;
73623;PMS5003;61921;53.226;-1.296;2022-10-15T02:37:20;17;15;
73623;PMS5003;61921;53.226;-1.296;2022-10-15T02:39:45;17;16;
73623;PMS5003;61921;53.226;-1.296;2022-10-15T02:42:10;19;19;
73623;PMS5003;61921;53.226;-1.296;2022-10-15T02:44:35;16;16;
73623;PMS5003;61921;53.226;-1.296;2022-10-15T02:47:02;21;19;
73623;PMS5003;61921;53.226;-1.296;2022-10-15T02:49:26;15;14;
73623;PMS5003;61921;53.226;-1.296;2022-10-15T02:51:51;15;14;
73623;PMS5003;61921;53.226;-1.296;2022-10-15T02:54:16;16;15;
73623;PMS5003;61921;53.226;-1.296;2022-10-15T02:56:42;12;12;
73623;PMS5003;61921;53.226;-1.296;2022-10-15T02:59:07;12;12;
73623;PMS5003;61921;53.226;-1.296;2022-10-15T03:01:33;18;17;
73623;PMS5003;61921;53.226;-1.296;2022-10-15T03:03:58;21;21;
73623;PMS5003;61921;53.226;-1.296;2022-10-15T03:06:23;19;16;
73623;PMS5003;61921;53.226;-1.296;2022-10-15T03:08:48;17;16;
73623;PMS5003;61921;53.226;-1.296;2022-10-15T03:11:14;20;19;
73623;PMS5003;61921;53.226;-1.296;2022-10-15T03:13:39;18;18;
73623;PMS5003;61921;53.226;-1.296;2022-10-15T03:16:04;19;18;
73623;PMS5003;61921;53.226;-1.296;2022-10-15T03:18:30;14;12;
73623;PMS5003;61921;53.226;-1.296;2022-10-15T03:20:54;16;15;
73623;PMS5003;61921;53.226;-1.296;2022-10-15T03:23:20;12;12;
73623;PMS5003;61921;53.226;-1.296;2022-10-15T03:25:45;13;12;
73623;PMS5003;61921;53.226;-1.296;2022-10-15T03:28:13;13;11;
73623;PMS5003;61921;53.226;-1.296;2022-10-15T03:30:36;11;11;
73623;PMS5003;61921;53.226;-1.296;2022-10-15T03:33:01;12;10;
73623;PMS5003;61921;53.226;-1.296;2022-10-15T03:35:26;12;9;
73623;PMS5003;61921;53.226;-1.296;2022-10-15T03:37:51;11;11;
73623;PMS5003;61921;53.226;-1.296;2022-10-15T03:40:17;13;12;
73623;PMS5003;61921;53.226;-1.296;2022-10-15T03:42:42;15;10;
73623;PMS5003;61921;53.226;-1.296;2022-10-15T03:45:08;10;7;
73623;PMS5003;61921;53.226;-1.296;2022-10-15T03:47:33;10;9;
73623;PMS5003;61921;53.226;-1.296;2022-10-15T03:49:58;11;10;
73623;PMS5003;61921;53.226;-1.296;2022-10-15T03:52:24;9;9;
73623;PMS5003;61921;53.226;-1.296;2022-10-15T03:54:49;14;12;
73623;PMS5003;61921;53.226;-1.296;2022-10-15T03:57:14;14;11;
73623;PMS5003;61921;53.226;-1.296;2022-10-15T03:59:39;11;10;
73623;PMS5003;61921;53.226;-1.296;2022-10-15T04:02:05;9;8;
73623;PMS5003;61921;53.226;-1.296;2022-10-15T04:04:30;12;10;
73623;PMS5003;61921;53.226;-1.296;2022-10-15T04:06:55;9;9;
73623;PMS5003;61921;53.226;-1.296;2022-10-15T04:09:20;10;10;
73623;PMS5003;61921;53.226;-1.296;2022-10-15T04:11:46;11;10;
73623;PMS5003;61921;53.226;-1.296;2022-10-15T04:14:11;9;9;
73623;PMS5003;61921;53.226;-1.296;2022-10-15T04:16:37;8;8;
73623;PMS5003;61921;53.226;-1.296;2022-10-15T04:19:02;7;7;
73623;PMS5003;61921;53.226;-1.296;2022-10-15T04:21:28;6;6;
73623;PMS5003;61921;53.226;-1.296;2022-10-15T04:23:53;11;10;
73623;PMS5003;61921;53.226;-1.296;2022-10-15T04:26:24;8;6;
73623;PMS5003;61921;53.226;-1.296;2022-10-15T04:28:46;8;7;
73623;PMS5003;61921;53.226;-1.296;2022-10-15T04:31:09;8;6;
73623;PMS5003;61921;53.226;-1.296;2022-10-15T04:33:35;9;8;
73623;PMS5003;61921;53.226;-1.296;2022-10-15T04:36:02;11;10;
73623;PMS5003;61921;53.226;-1.296;2022-10-15T04:38:26;13;10;
73623;PMS5003;61921;53.226;-1.296;2022-10-15T04:43:22;5;5;
73623;PMS5003;61921;53.226;-1.296;2022-10-15T04:45:42;6;6;
73623;PMS5003;61921;53.226;-1.296;2022-10-15T04:48:08;7;7;
73623;PMS5003;61921;53.226;-1.296;2022-10-15T04:50:33;6;6;
73623;PMS5003;61921;53.226;-1.296;2022-10-15T04:52:58;8;7;
73623;PMS5003;61921;53.226;-1.296;2022-10-15T04:55:24;7;7;
73623;PMS5003;61921;53.226;-1.296;2022-10-15T04:57:49;8;7;
73623;PMS5003;61921;53.226;-1.296;2022-10-15T05:00:14;6;6;
73623;PMS5003;61921;53.226;-1.296;2022-10-15T05:02:40;8;7;
73623;PMS5003;61921;53.226;-1.296;2022-10-15T05:05:06;11;10;
73623;PMS5003;61921;53.226;-1.296;2022-10-15T05:07:31;8;8;
73623;PMS5003;61921;53.226;-1.296;2022-10-15T05:09:57;12;10;
73623;PMS5003;61921;53.226;-1.296;2022-10-15T05:12:21;9;9;
73623;PMS5003;61921;53.226;-1.296;2022-10-15T05:14:47;8;8;
73623;PMS5003;61921;53.226;-1.296;2022-10-15T05:17:13;11;11;
73623;PMS5003;61921;53.226;-1.296;2022-10-15T05:19:37;15;11;
73623;PMS5003;61921;53.226;-1.296;2022-10-15T05:22:03;12;11;
73623;PMS5003;61921;53.226;-1.296;2022-10-15T05:24:28;12;12;
73623;PMS5003;61921;53.226;-1.296;2022-10-15T05:26:56;14;12;
73623;PMS5003;61921;53.226;-1.296;2022-10-15T05:29:19;13;13;
73623;PMS5003;61921;53.226;-1.296;2022-10-15T05:31:44;15;13;
73623;PMS5003;61921;53.226;-1.296;2022-10-15T05:34:14;15;13;
73623;PMS5003;61921;53.226;-1.296;2022-10-15T05:36:35;15;14;
73623;PMS5003;61921;53.226;-1.296;2022-10-15T05:39:01;16;14;
73623;PMS5003;61921;53.226;-1.296;2022-10-15T05:41:26;15;13;
73623;PMS5003;61921;53.226;-1.296;2022-10-15T05:43:51;16;15;
73623;PMS5003;61921;53.226;-1.296;2022-10-15T05:46:16;12;12;
73623;PMS5003;61921;53.226;-1.296;2022-10-15T05:48:42;16;15;
73623;PMS5003;61921;53.226;-1.296;2022-10-15T05:51:09;15;13;
73623;PMS5003;61921;53.226;-1.296;2022-10-15T05:53:32;15;14;
73623;PMS5003;61921;53.226;-1.296;2022-10-15T05:55:57;14;14;
73623;PMS5003;61921;53.226;-1.296;2022-10-15T05:58:23;15;14;
73623;PMS5003;61921;53.226;-1.296;2022-10-15T06:00:52;14;13;
73623;PMS5003;61921;53.226;-1.296;2022-10-15T06:03:13;12;12;
73623;PMS5003;61921;53.226;-1.296;2022-10-15T06:05:39;11;10;
73623;PMS5003;61921;53.226;-1.296;2022-10-15T06:08:04;14;11;
73623;PMS5003;61921;53.226;-1.296;2022-10-15T06:10:33;13;13;
73623;PMS5003;61921;53.226;-1.296;2022-10-15T06:12:55;12;12;
73623;PMS5003;61921;53.226;-1.296;2022-10-15T06:15:20;11;10;
73623;PMS5003;61921;53.226;-1.296;2022-10-15T06:17:46;16;12;
73623;PMS5003;61921;53.226;-1.296;2022-10-15T06:20:11;11;11;
73623;PMS5003;61921;53.226;-1.296;2022-10-15T06:22:36;14;11;
73623;PMS5003;61921;53.226;-1.296;2022-10-15T06:25:01;12;11;
73623;PMS5003;61921;53.226;-1.296;2022-10-15T06:27:27;7;7;
73623;PMS5003;61921;53.226;-1.296;2022-10-15T06:29:52;12;10;
73623;PMS5003;61921;53.226;-1.296;2022-10-15T06:32:19;9;9;
73623;PMS5003;61921;53.226;-1.296;2022-10-15T06:34:44;9;9;
73623;PMS5003;61921;53.226;-1.296;2022-10-15T06:37:09;9;9;
73623;PMS5003;61921;53.226;-1.296;2022-10-15T06:39:34;8;7;
73623;PMS5003;61921;53.226;-1.296;2022-10-15T06:42:00;8;7;
73623;PMS5003;61921;53.226;-1.296;2022-10-15T06:44:25;10;8;
73623;PMS5003;61921;53.226;-1.296;2022-10-15T06:46:50;10;10;
73623;PMS5003;61921;53.226;-1.296;2022-10-15T06:49:15;8;8;
73623;PMS5003;61921;53.226;-1.296;2022-10-15T06:51:41;9;9;
73623;PMS5003;61921;53.226;-1.296;2022-10-15T06:54:06;12;9;
73623;PMS5003;61921;53.226;-1.296;2022-10-15T06:56:32;8;8;
73623;PMS5003;61921;53.226;-1.296;2022-10-15T06:58:57;10;9;
73623;PMS5003;61921;53.226;-1.296;2022-10-15T07:01:22;9;9;
73623;PMS5003;61921;53.226;-1.296;2022-10-15T07:03:48;11;7;
73623;PMS5003;61921;53.226;-1.296;2022-10-15T07:06:13;8;8;
73623;PMS5003;61921;53.226;-1.296;2022-10-15T07:08:39;8;8;
73623;PMS5003;61921;53.226;-1.296;2022-10-15T07:11:04;9;8;
73623;PMS5003;61921;53.226;-1.296;2022-10-15T07:13:31;7;7;
73623;PMS5003;61921;53.226;-1.296;2022-10-15T07:15:55;7;7;
73623;PMS5003;61921;53.226;-1.296;2022-10-15T07:18:20;7;7;
73623;PMS5003;61921;53.226;-1.296;2022-10-15T07:20:45;6;6;
73623;PMS5003;61921;53.226;-1.296;2022-10-15T07:23:11;6;6;
73623;PMS5003;61921;53.226;-1.296;2022-10-15T07:25:41;6;6;
73623;PMS5003;61921;53.226;-1.296;2022-10-15T07:28:03;8;8;
73623;PMS5003;61921;53.226;-1.296;2022-10-15T07:30:27;4;4;
73623;PMS5003;61921;53.226;-1.296;2022-10-15T07:32:52;6;5;
73623;PMS5003;61921;53.226;-1.296;2022-10-15T07:35:18;2;2;
73623;PMS5003;61921;53.226;-1.296;2022-10-15T07:37:43;4;4;
73623;PMS5003;61921;53.226;-1.296;2022-10-15T07:40:08;3;3;
73623;PMS5003;61921;53.226;-1.296;2022-10-15T07:42:34;2;2;
73623;PMS5003;61921;53.226;-1.296;2022-10-15T07:44:59;3;3;
73623;PMS5003;61921;53.226;-1.296;2022-10-15T07:47:24;7;4;
73623;PMS5003;61921;53.226;-1.296;2022-10-15T07:49:50;4;3;
73623;PMS5003;61921;53.226;-1.296;2022-10-15T07:52:15;3;2;
73623;PMS5003;61921;53.226;-1.296;2022-10-15T07:54:45;4;2;
73623;PMS5003;61921;53.226;-1.296;2022-10-15T07:57:06;4;2;
73623;PMS5003;61921;53.226;-1.296;2022-10-15T07:59:31;2;2;
73623;PMS5003;61921;53.226;-1.296;2022-10-15T08:01:56;3;3;
73623;PMS5003;61921;53.226;-1.296;2022-10-15T08:04:22;2;2;
73623;PMS5003;61921;53.226;-1.296;2022-10-15T08:06:47;1;1;
73623;PMS5003;61921;53.226;-1.296;2022-10-15T08:09:12;5;4;
73623;PMS5003;61921;53.226;-1.296;2022-10-15T08:11:37;3;2;
73623;PMS5003;61921;53.226;-1.296;2022-10-15T08:14:03;3;2;
73623;PMS5003;61921;53.226;-1.296;2022-10-15T08:16:28;2;1;
73623;PMS5003;61921;53.226;-1.296;2022-10-15T08:18:53;4;4;
73623;PMS5003;61921;53.226;-1.296;2022-10-15T08:21:19;6;4;
73623;PMS5003;61921;53.226;-1.296;2022-10-15T08:23:44;4;2;
73623;PMS5003;61921;53.226;-1.296;2022-10-15T08:26:10;2;2;
73623;PMS5003;61921;53.226;-1.296;2022-10-15T08:28:35;3;1;
73623;PMS5003;61921;53.226;-1.296;2022-10-15T08:31:00;4;4;
73623;PMS5003;61921;53.226;-1.296;2022-10-15T08:33:26;3;3;
73623;PMS5003;61921;53.226;-1.296;2022-10-15T08:35:51;5;5;
73623;PMS5003;61921;53.226;-1.296;2022-10-15T08:38:16;3;3;
73623;PMS5003;61921;53.226;-1.296;2022-10-15T08:40:45;4;4;
73623;PMS5003;61921;53.226;-1.296;2022-10-15T08:43:11;3;3;
73623;PMS5003;61921;53.226;-1.296;2022-10-15T08:45:34;9;9;
73623;PMS5003;61921;53.226;-1.296;2022-10-15T08:47:58;3;3;
73623;PMS5003;61921;53.226;-1.296;2022-10-15T08:50:26;4;4;
73623;PMS5003;61921;53.226;-1.296;2022-10-15T08:52:48;4;4;
73623;PMS5003;61921;53.226;-1.296;2022-10-15T08:55:15;7;7;
73623;PMS5003;61921;53.226;-1.296;2022-10-15T08:57:40;3;3;
73623;PMS5003;61921;53.226;-1.296;2022-10-15T09:00:09;5;4;
73623;PMS5003;61921;53.226;-1.296;2022-10-15T09:02:33;6;4;
73623;PMS5003;61921;53.226;-1.296;2022-10-15T09:04:58;3;3;
73623;PMS5003;61921;53.226;-1.296;2022-10-15T09:07:23;1;1;
73623;PMS5003;61921;53.226;-1.296;2022-10-15T09:09:46;2;2;
73623;PMS5003;61921;53.226;-1.296;2022-10-15T09:12:15;2;2;
73623;PMS5003;61921;53.226;-1.296;2022-10-15T09:14:37;1;1;
73623;PMS5003;61921;53.226;-1.296;2022-10-15T09:17:03;2;2;
73623;PMS5003;61921;53.226;-1.296;2022-10-15T09:19:27;1;1;
73623;PMS5003;61921;53.226;-1.296;2022-10-15T09:21:52;1;1;
73623;PMS5003;61921;53.226;-1.296;2022-10-15T09:24:19;0;0;
73623;PMS5003;61921;53.226;-1.296;2022-10-15T09:26:48;2;2;
73623;PMS5003;61921;53.226;-1.296;2022-10-15T09:29:11;4;3;
73623;PMS5003;61921;53.226;-1.296;2022-10-15T09:31:35;1;0;
73623;PMS5003;61921;53.226;-1.296;2022-10-15T09:34:00;1;1;
73623;PMS5003;61921;53.226;-1.296;2022-10-15T09:36:28;1;1;
73623;PMS5003;61921;53.226;-1.296;2022-10-15T09:38:53;3;1;
73623;PMS5003;61921;53.226;-1.296;2022-10-15T09:41:16;3;1;
73623;PMS5003;61921;53.226;-1.296;2022-10-15T09:43:41;0;0;
73623;PMS5003;61921;53.226;-1.296;2022-10-15T09:46:05;0;0;
73623;PMS5003;61921;53.226;-1.296;2022-10-15T09:48:32;1;1;
73623;PMS5003;61921;53.226;-1.296;2022-10-15T09:50:57;2;2;
73623;PMS5003;61921;53.226;-1.296;2022-10-15T09:53:22;1;0;
73623;PMS5003;61921;53.226;-1.296;2022-10-15T09:55:48;1;1;
73623;PMS5003;61921;53.226;-1.296;2022-10-15T09:58:14;1;1;
73623;PMS5003;61921;53.226;-1.296;2022-10-15T10:00:51;3;1;
73623;PMS5003;61921;53.226;-1.296;2022-10-15T10:03:03;2;2;
73623;PMS5003;61921;53.226;-1.296;2022-10-15T10:05:29;2;1;
73623;PMS5003;61921;53.226;-1.296;2022-10-15T10:10:21;1;1;
73623;PMS5003;61921;53.226;-1.296;2022-10-15T10:12:43;2;1;
73623;PMS5003;61921;53.226;-1.296;2022-10-15T10:15:23;3;0;
73623;PMS5003;61921;53.226;-1.296;2022-10-15T10:17:34;2;1;
73623;PMS5003;61921;53.226;-1.296;2022-10-15T10:20:03;1;1;
73623;PMS5003;61921;53.226;-1.296;2022-10-15T10:22:25;1;1;
73623;PMS5003;61921;53.226;-1.296;2022-10-15T10:24:51;1;1;
73623;PMS5003;61921;53.226;-1.296;2022-10-15T10:27:18;1;1;
73623;PMS5003;61921;53.226;-1.296;2022-10-15T10:29:40;0;0;
73623;PMS5003;61921;53.226;-1.296;2022-10-15T10:32:10;0;0;
73623;PMS5003;61921;53.226;-1.296;2022-10-15T10:34:31;2;1;
73623;PMS5003;61921;53.226;-1.296;2022-10-15T10:36:56;0;0;
73623;PMS5003;61921;53.226;-1.296;2022-10-15T10:39:24;1;1;
73623;PMS5003;61921;53.226;-1.296;2022-10-15T10:41:48;2;1;
73623;PMS5003;61921;53.226;-1.296;2022-10-15T10:44:18;1;1;
73623;PMS5003;61921;53.226;-1.296;2022-10-15T10:46:38;2;0;
73623;PMS5003;61921;53.226;-1.296;2022-10-15T10:49:03;3;2;
73623;PMS5003;61921;53.226;-1.296;2022-10-15T10:51:28;2;2;
73623;PMS5003;61921;53.226;-1.296;2022-10-15T10:53:54;0;0;
73623;PMS5003;61921;53.226;-1.296;2022-10-15T10:56:21;2;2;
73623;PMS5003;61921;53.226;-1.296;2022-10-15T10:58:44;0;0;
73623;PMS5003;61921;53.226;-1.296;2022-10-15T11:01:10;0;0;
73623;PMS5003;61921;53.226;-1.296;2022-10-15T11:03:35;0;0;
73623;PMS5003;61921;53.226;-1.296;2022-10-15T11:06:03;1;1;
73623;PMS5003;61921;53.226;-1.296;2022-10-15T11:08:26;0;0;
73623;PMS5003;61921;53.226;-1.296;2022-10-15T11:10:51;1;0;
73623;PMS5003;61921;53.226;-1.296;2022-10-15T11:13:23;1;1;
73623;PMS5003;61921;53.226;-1.296;2022-10-15T11:15:43;0;0;
73623;PMS5003;61921;53.226;-1.296;2022-10-15T11:18:11;1;1;
73623;PMS5003;61921;53.226;-1.296;2022-10-15T11:20:36;0;0;
73623;PMS5003;61921;53.226;-1.296;2022-10-15T11:23:01;3;1;
73623;PMS5003;61921;53.226;-1.296;2022-10-15T11:25:26;3;1;
73623;PMS5003;61921;53.226;-1.296;2022-10-15T11:27:52;2;2;
73623;PMS5003;61921;53.226;-1.296;2022-10-15T11:30:16;2;1;
73623;PMS5003;61921;53.226;-1.296;2022-10-15T11:32:41;3;1;
73623;PMS5003;61921;53.226;-1.296;2022-10-15T11:35:08;2;1;
73623;PMS5003;61921;53.226;-1.296;2022-10-15T11:37:32;1;1;
73623;PMS5003;61921;53.226;-1.296;2022-10-15T11:39:58;0;0;
73623;PMS5003;61921;53.226;-1.296;2022-10-15T11:42:20;2;0;
73623;PMS5003;61921;53.226;-1.296;2022-10-15T11:47:13;4;2;
73623;PMS5003;61921;53.226;-1.296;2022-10-15T11:49:37;5;2;
73623;PMS5003;61921;53.226;-1.296;2022-10-15T11:52:04;2;2;
73623;PMS5003;61921;53.226;-1.296;2022-10-15T11:54:26;2;1;
73623;PMS5003;61921;53.226;-1.296;2022-10-15T11:56:51;3;2;
73623;PMS5003;61921;53.226;-1.296;2022-10-15T11:59:19;0;0;
73623;PMS5003;61921;53.226;-1.296;2022-10-15T12:01:42;3;1;
73623;PMS5003;61921;53.226;-1.296;2022-10-15T12:04:09;1;1;
73623;PMS5003;61921;53.226;-1.296;2022-10-15T12:06:33;3;1;
73623;PMS5003;61921;53.226;-1.296;2022-10-15T12:08:58;0;0;
73623;PMS5003;61921;53.226;-1.296;2022-10-15T12:11:25;1;1;
73623;PMS5003;61921;53.226;-1.296;2022-10-15T12:13:49;1;1;
73623;PMS5003;61921;53.226;-1.296;2022-10-15T12:16:17;3;1;
73623;PMS5003;61921;53.226;-1.296;2022-10-15T12:18:41;3;1;
73623;PMS5003;61921;53.226;-1.296;2022-10-15T12:25:55;4;1;
73623;PMS5003;61921;53.226;-1.296;2022-10-15T12:28:20;0;0;
73623;PMS5003;61921;53.226;-1.296;2022-10-15T12:30:54;2;0;
73623;PMS5003;61921;53.226;-1.296;2022-10-15T12:35:36;2;2;
73623;PMS5003;61921;53.226;-1.296;2022-10-15T12:40:26;0;0;
73623;PMS5003;61921;53.226;-1.296;2022-10-15T12:42:51;2;2;
73623;PMS5003;61921;53.226;-1.296;2022-10-15T12:45:19;2;1;
73623;PMS5003;61921;53.226;-1.296;2022-10-15T12:47:45;0;0;
73623;PMS5003;61921;53.226;-1.296;2022-10-15T12:59:53;0;0;
73623;PMS5003;61921;53.226;-1.296;2022-10-15T13:04:38;3;0;
73623;PMS5003;61921;53.226;-1.296;2022-10-15T13:07:03;1;1;
73623;PMS5003;61921;53.226;-1.296;2022-10-15T13:09:28;1;1;
73623;PMS5003;61921;53.226;-1.296;2022-10-15T13:11:54;1;1;
73623;PMS5003;61921;53.226;-1.296;2022-10-15T13:14:22;0;0;
73623;PMS5003;61921;53.226;-1.296;2022-10-15T13:16:44;1;1;
73623;PMS5003;61921;53.226;-1.296;2022-10-15T13:23:59;0;0;
73623;PMS5003;61921;53.226;-1.296;2022-10-15T13:26:25;1;1;
73623;PMS5003;61921;53.226;-1.296;2022-10-15T13:28:50;1;1;
73623;PMS5003;61921;53.226;-1.296;2022-10-15T13:31:18;1;1;
73623;PMS5003;61921;53.226;-1.296;2022-10-15T13:33:41;0;0;
73623;PMS5003;61921;53.226;-1.296;2022-10-15T13:36:06;0;0;
73623;PMS5003;61921;53.226;-1.296;2022-10-15T13:38:37;0;0;
73623;PMS5003;61921;53.226;-1.296;2022-10-15T13:40:56;0;0;
73623;PMS5003;61921;53.226;-1.296;2022-10-15T13:43:22;0;0;
73623;PMS5003;61921;53.226;-1.296;2022-10-15T13:45:47;3;1;
73623;PMS5003;61921;53.226;-1.296;2022-10-15T13:48:14;1;1;
73623;PMS5003;61921;53.226;-1.296;2022-10-15T13:50:37;1;0;
73623;PMS5003;61921;53.226;-1.296;2022-10-15T13:53:04;1;0;
73623;PMS5003;61921;53.226;-1.296;2022-10-15T13:55:28;0;0;
73623;PMS5003;61921;53.226;-1.296;2022-10-15T13:57:55;2;0;
73623;PMS5003;61921;53.226;-1.296;2022-10-15T14:00:21;0;0;
73623;PMS5003;61921;53.226;-1.296;2022-10-15T14:02:43;3;1;
73623;PMS5003;61921;53.226;-1.296;2022-10-15T14:05:14;0;0;
73623;PMS5003;61921;53.226;-1.296;2022-10-15T14:07:34;2;1;
73623;PMS5003;61921;53.226;-1.296;2022-10-15T14:09:59;2;2;
73623;PMS5003;61921;53.226;-1.296;2022-10-15T14:12:24;2;2;
73623;PMS5003;61921;53.226;-1.296;2022-10-15T14:14:50;1;1;
73623;PMS5003;61921;53.226;-1.296;2022-10-15T14:17:20;1;0;
73623;PMS5003;61921;53.226;-1.296;2022-10-15T14:19:40;0;0;
73623;PMS5003;61921;53.226;-1.296;2022-10-15T14:22:05;0;0;
73623;PMS5003;61921;53.226;-1.296;2022-10-15T14:24:31;0;0;
73623;PMS5003;61921;53.226;-1.296;2022-10-15T14:26:59;1;1;
73623;PMS5003;61921;53.226;-1.296;2022-10-15T14:29:21;3;2;
73623;PMS5003;61921;53.226;-1.296;2022-10-15T14:31:46;3;1;
73623;PMS5003;61921;53.226;-1.296;2022-10-15T14:36:40;2;1;
73623;PMS5003;61921;53.226;-1.296;2022-10-15T14:41:27;1;0;
73623;PMS5003;61921;53.226;-1.296;2022-10-15T14:43:59;1;1;
73623;PMS5003;61921;53.226;-1.296;2022-10-15T14:46:17;2;1;
73623;PMS5003;61921;53.226;-1.296;2022-10-15T14:48:42;1;1;
73623;PMS5003;61921;53.226;-1.296;2022-10-15T14:51:11;4;2;
73623;PMS5003;61921;53.226;-1.296;2022-10-15T14:53:33;2;2;
73623;PMS5003;61921;53.226;-1.296;2022-10-15T14:55:59;3;1;
73623;PMS5003;61921;53.226;-1.296;2022-10-15T14:58:24;3;3;
73623;PMS5003;61921;53.226;-1.296;2022-10-15T15:00:53;2;0;
73623;PMS5003;61921;53.226;-1.296;2022-10-15T15:03:15;2;2;
73623;PMS5003;61921;53.226;-1.296;2022-10-15T15:05:43;3;1;
73623;PMS5003;61921;53.226;-1.296;2022-10-15T15:08:04;7;3;
73623;PMS5003;61921;53.226;-1.296;2022-10-15T15:10:30;3;3;
73623;PMS5003;61921;53.226;-1.296;2022-10-15T15:12:55;5;4;
73623;PMS5003;61921;53.226;-1.296;2022-10-15T15:15:21;3;3;
73623;PMS5003;61921;53.226;-1.296;2022-10-15T15:17:46;2;2;
73623;PMS5003;61921;53.226;-1.296;2022-10-15T15:20:11;3;2;
73623;PMS5003;61921;53.226;-1.296;2022-10-15T15:22:36;3;1;
73623;PMS5003;61921;53.226;-1.296;2022-10-15T15:25:03;8;5;
73623;PMS5003;61921;53.226;-1.296;2022-10-15T15:27:28;5;2;
73623;PMS5003;61921;53.226;-1.296;2022-10-15T15:29:52;3;3;
73623;PMS5003;61921;53.226;-1.296;2022-10-15T15:32:18;7;5;
73623;PMS5003;61921;53.226;-1.296;2022-10-15T15:34:43;3;3;
73623;PMS5003;61921;53.226;-1.296;2022-10-15T15:37:11;3;2;
73623;PMS5003;61921;53.226;-1.296;2022-10-15T15:39:33;3;3;
73623;PMS5003;61921;53.226;-1.296;2022-10-15T15:41:58;6;5;
73623;PMS5003;61921;53.226;-1.296;2022-10-15T15:44:24;6;3;
73623;PMS5003;61921;53.226;-1.296;2022-10-15T15:46:50;4;2;
73623;PMS5003;61921;53.226;-1.296;2022-10-15T15:49:15;5;5;
73623;PMS5003;61921;53.226;-1.296;2022-10-15T15:51:41;6;5;
73623;PMS5003;61921;53.226;-1.296;2022-10-15T15:54:06;8;4;
73623;PMS5003;61921;53.226;-1.296;2022-10-15T15:56:32;5;5;
73623;PMS5003;61921;53.226;-1.296;2022-10-15T15:58:57;13;7;
73623;PMS5003;61921;53.226;-1.296;2022-10-15T16:01:22;9;5;
73623;PMS5003;61921;53.226;-1.296;2022-10-15T16:03:47;6;6;
73623;PMS5003;61921;53.226;-1.296;2022-10-15T16:06:13;7;7;
73623;PMS5003;61921;53.226;-1.296;2022-10-15T16:08:38;10;8;
73623;PMS5003;61921;53.226;-1.296;2022-10-15T16:11:04;6;6;
73623;PMS5003;61921;53.226;-1.296;2022-10-15T16:13:29;10;9;
73623;PMS5003;61921;53.226;-1.296;2022-10-15T16:15:54;7;7;
73623;PMS5003;61921;53.226;-1.296;2022-10-15T16:18:20;3;3;
73623;PMS5003;61921;53.226;-1.296;2022-10-15T16:20:45;4;4;
73623;PMS5003;61921;53.226;-1.296;2022-10-15T16:23:10;3;2;
73623;PMS5003;61921;53.226;-1.296;2022-10-15T16:25:35;6;5;
73623;PMS5003;61921;53.226;-1.296;2022-10-15T16:28:01;8;7;
73623;PMS5003;61921;53.226;-1.296;2022-10-15T16:30:31;13;12;
73623;PMS5003;61921;53.226;-1.296;2022-10-15T16:32:51;16;13;
73623;PMS5003;61921;53.226;-1.296;2022-10-15T16:35:17;9;6;
73623;PMS5003;61921;53.226;-1.296;2022-10-15T16:37:42;4;4;
73623;PMS5003;61921;53.226;-1.296;2022-10-15T16:40:08;5;4;
73623;PMS5003;61921;53.226;-1.296;2022-10-15T16:42:33;4;4;
73623;PMS5003;61921;53.226;-1.296;2022-10-15T16:44:58;9;5;
73623;PMS5003;61921;53.226;-1.296;2022-10-15T16:47:23;4;3;
73623;PMS5003;61921;53.226;-1.296;2022-10-15T16:49:49;6;4;
73623;PMS5003;61921;53.226;-1.296;2022-10-15T16:52:14;9;7;
73623;PMS5003;61921;53.226;-1.296;2022-10-15T16:54:40;14;9;